Time;durP1;ratioP1;P1;durP2;ratioP2;P2;SDS_P1;SDS_P2;PMS_P1;PMS_P2;Temp;Humidity;BMP_temperature;BMP_pressure;BME280_temperature;BME280_humidity;BME280_pressure;Samples;Min_cycle;Max_cycle;Signal;HPM_P1;HPM_P2
2023/12/10 00:01:22;;;;;;;;;55.50;43.50;;;;;2.15;56.76;99118.09;5153297;27;8880;-77
2023/12/10 00:03:51;;;;;;;;;41.50;38.25;;;;;2.26;55.86;99116.44;5135297;27;8791;-77
2023/12/10 00:06:21;;;;;;;;;49.50;43.25;;;;;2.25;55.99;99119.03;5084082;27;8847;-78
2023/12/10 00:08:51;;;;;;;;;55.75;46.50;;;;;2.31;56.50;99106.94;5153382;27;8866;-77
2023/12/10 00:11:20;;;;;;;;;57.00;45.00;;;;;2.29;55.89;99106.06;5117873;27;9612;-78
2023/12/10 00:13:49;;;;;;;;;55.75;46.00;;;;;2.25;56.27;99111.25;5134940;27;8887;-77
2023/12/10 00:16:18;;;;;;;;;51.25;45.25;;;;;2.20;56.11;99114.69;5153495;27;8917;-78
2023/12/10 00:18:47;;;;;;;;;51.75;44.25;;;;;2.18;56.03;99115.50;5153189;27;8853;-77
2023/12/10 00:21:16;;;;;;;;;52.75;44.25;;;;;2.18;56.41;99110.31;5117430;27;8873;-78
2023/12/10 00:23:45;;;;;;;;;48.00;42.50;;;;;2.18;55.99;99113.81;5134445;27;8837;-75
2023/12/10 00:26:16;;;;;;;;;58.50;45.00;;;;;2.26;56.40;99110.38;5083622;27;8871;-78
2023/12/10 00:28:45;;;;;;;;;47.75;42.75;;;;;2.27;55.52;99115.56;5099497;27;8849;-75
2023/12/10 00:31:14;;;;;;;;;53.25;44.00;;;;;2.13;56.45;99107.72;5152860;27;8944;-77
2023/12/10 00:33:43;;;;;;;;;52.00;41.25;;;;;2.15;56.28;99107.72;5115952;27;8864;-78
2023/12/10 00:36:15;;;;;;;;;53.25;43.50;;;;;2.20;56.08;99104.31;5134192;27;8868;-77
2023/12/10 00:38:44;;;;;;;;;49.25;43.75;;;;;2.21;55.69;99092.19;5151780;27;9671;-78
2023/12/10 00:41:15;;;;;;;;;43.25;40.75;;;;;2.27;55.94;99093.97;5133991;27;8883;-77
2023/12/10 00:43:44;;;;;;;;;45.75;42.50;;;;;2.21;55.51;99092.19;5159806;27;8841;-77
2023/12/10 00:46:13;;;;;;;;;36.75;34.75;;;;;2.15;55.70;99085.25;5141158;27;8867;-78
2023/12/10 00:48:43;;;;;;;;;53.50;43.00;;;;;2.19;55.59;99087.00;5154791;27;8933;-76
2023/12/10 00:51:19;;;;;;;;;55.75;43.50;;;;;2.15;56.51;99089.59;5152463;27;8852;-77
2023/12/10 00:53:49;;;;;;;;;31.50;24.75;;;;;2.06;56.42;99080.00;5152086;27;9057;-77
2023/12/10 00:56:20;;;;;;;;;45.50;40.50;;;;;2.09;55.93;99081.75;5066241;27;8857;-78
2023/12/10 00:58:48;;;;;;;;;49.25;40.75;;;;;2.09;55.75;99073.97;5098549;27;8841;-80
2023/12/10 01:01:17;;;;;;;;;52.25;44.00;;;;;2.10;55.81;99080.91;5133881;27;8892;-76
2023/12/10 01:03:47;;;;;;;;;48.50;40.75;;;;;2.02;56.16;99079.13;5152069;27;8845;-78
2023/12/10 01:06:16;;;;;;;;;56.25;45.00;;;;;2.08;56.07;99087.81;5133957;27;8856;-79
2023/12/10 01:08:45;;;;;;;;;48.00;40.25;;;;;2.11;56.04;99086.09;5116117;27;8849;-78
2023/12/10 01:11:14;;;;;;;;;49.50;43.25;;;;;2.16;55.91;99086.13;5133524;27;8841;-81
2023/12/10 01:13:45;;;;;;;;;49.75;43.50;;;;;2.20;55.63;99083.56;5116600;27;8837;-80
2023/12/10 01:16:16;;;;;;;;;43.25;40.50;;;;;2.13;55.58;99079.19;5133796;27;8917;-79
2023/12/10 01:18:47;;;;;;;;;47.00;40.00;;;;;1.99;56.52;99073.94;5133389;27;8845;-77
2023/12/10 01:21:17;;;;;;;;;50.00;44.00;;;;;2.10;56.12;99068.78;5100409;27;8873;-77
2023/12/10 01:23:48;;;;;;;;;45.00;41.25;;;;;2.13;55.53;99066.22;5133162;27;8849;-78
2023/12/10 01:26:17;;;;;;;;;51.50;44.25;;;;;2.13;55.81;99071.41;5151778;27;8883;-78
2023/12/10 01:28:47;;;;;;;;;53.50;45.00;;;;;2.11;55.60;99067.09;5133195;27;8853;-77
2023/12/10 01:31:17;;;;;;;;;47.25;42.50;;;;;2.08;55.13;99067.91;5152278;27;8864;-79
2023/12/10 01:33:46;;;;;;;;;47.75;41.50;;;;;2.16;55.57;99060.19;5154092;27;8909;-77
2023/12/10 01:36:22;;;;;;;;;54.50;43.50;;;;;2.25;55.22;99054.19;5136802;27;8867;-76
2023/12/10 01:38:52;;;;;;;;;49.50;42.25;;;;;2.11;54.83;99049.81;5152215;27;8876;-77
2023/12/10 01:41:21;;;;;;;;;60.00;45.25;;;;;2.16;55.20;99042.03;5151640;27;8937;-77
2023/12/10 01:43:51;;;;;;;;;43.00;41.25;;;;;2.15;55.47;99037.72;5152273;27;8933;-77
2023/12/10 01:46:21;;;;;;;;;42.75;36.00;;;;;2.14;54.95;99044.63;5133375;27;8833;-77
2023/12/10 01:48:52;;;;;;;;;47.25;41.50;;;;;1.92;55.77;99042.75;5133200;27;8837;-77
2023/12/10 01:51:24;;;;;;;;;52.00;42.75;;;;;1.95;55.31;99038.47;5151105;27;8868;-77
2023/12/10 01:53:54;;;;;;;;;46.75;40.50;;;;;2.01;55.23;99043.72;5151554;27;8849;-77
2023/12/10 01:56:23;;;;;;;;;27.00;25.00;;;;;1.96;55.75;99031.56;5133032;27;8891;-77
2023/12/10 01:58:53;;;;;;;;;46.00;41.50;;;;;1.96;55.61;99034.16;5151150;27;8937;-77
2023/12/10 02:01:23;;;;;;;;;49.00;42.00;;;;;2.03;55.05;99028.13;5098783;27;8893;-77
2023/12/10 02:03:52;;;;;;;;;51.00;42.25;;;;;1.96;54.98;99026.38;5132829;27;8849;-76
2023/12/10 02:06:24;;;;;;;;;47.75;42.00;;;;;2.00;55.09;99023.81;5098472;27;8951;-77
2023/12/10 02:08:53;;;;;;;;;57.25;46.25;;;;;1.94;55.72;99025.53;5132258;27;8845;-77
2023/12/10 02:11:22;;;;;;;;;54.75;45.00;;;;;1.94;55.44;99009.97;5150692;27;8841;-78
2023/12/10 02:13:52;;;;;;;;;46.50;41.50;;;;;2.01;55.20;99002.22;5151121;27;8868;-76
2023/12/10 02:16:21;;;;;;;;;44.75;35.75;;;;;2.08;54.58;99003.09;5081332;27;8845;-78
2023/12/10 02:18:50;;;;;;;;;55.75;44.25;;;;;2.11;55.25;98997.94;5132176;27;9001;-77
2023/12/10 02:21:19;;;;;;;;;46.75;42.00;;;;;2.16;54.69;99018.69;5150690;27;8933;-76
2023/12/10 02:23:56;;;;;;;;;58.50;47.00;;;;;1.96;55.49;99013.44;5150251;27;9632;-77
2023/12/10 02:26:27;;;;;;;;;48.25;43.00;;;;;1.82;55.79;99021.09;5150819;27;8834;-77
2023/12/10 02:28:55;;;;;;;;;58.00;45.50;;;;;1.61;56.45;99022.69;5080322;27;8834;-76
2023/12/10 02:31:25;;;;;;;;;57.25;44.50;;;;;1.69;56.31;99019.31;5153337;27;8851;-78
2023/12/10 02:33:54;;;;;;;;;50.75;42.50;;;;;1.63;56.23;99015.84;5084670;27;8828;-75
2023/12/10 02:36:23;;;;;;;;;62.50;47.00;;;;;1.59;56.05;99015.78;5152014;27;8839;-78
2023/12/10 02:38:52;;;;;;;;;52.00;43.00;;;;;1.27;57.14;99018.13;5132263;27;8856;-77
2023/12/10 02:41:21;;;;;;;;;59.50;48.50;;;;;1.33;57.46;99013.88;5081211;27;8915;-77
2023/12/10 02:43:52;;;;;;;;;59.75;48.00;;;;;1.32;57.39;99016.47;5132309;27;8891;-76
2023/12/10 02:46:21;;;;;;;;;49.50;44.00;;;;;1.36;57.03;99006.13;5150227;27;8920;-78
2023/12/10 02:48:51;;;;;;;;;51.25;45.25;;;;;1.24;57.09;99009.50;5132199;27;8853;-78
2023/12/10 02:51:20;;;;;;;;;58.25;47.75;;;;;1.27;57.18;99008.63;5114196;27;8845;-77
2023/12/10 02:53:49;;;;;;;;;53.00;46.00;;;;;1.08;57.74;99001.59;5089567;28;8832;-77
2023/12/10 02:56:19;;;;;;;;;54.25;46.00;;;;;1.31;56.93;99006.94;5106239;28;9821;-76
2023/12/10 02:58:48;;;;;;;;;60.25;48.25;;;;;1.06;57.60;99014.50;5106510;28;8863;-78
2023/12/10 03:01:18;;;;;;;;;51.75;43.25;;;;;0.96;58.36;99021.31;5088889;28;8940;-77
2023/12/10 03:03:47;;;;;;;;;56.25;44.75;;;;;0.66;59.43;99033.06;5088919;28;9037;-78
2023/12/10 03:06:16;;;;;;;;;54.25;45.50;;;;;0.65;59.81;99020.09;5106250;28;9676;-79
2023/12/10 03:08:45;;;;;;;;;67.75;52.50;;;;;0.76;59.27;99022.81;5089002;28;8894;-77
2023/12/10 03:11:14;;;;;;;;;61.50;45.75;;;;;0.43;60.11;99026.78;5106473;28;8861;-78
2023/12/10 03:13:43;;;;;;;;;54.25;45.25;;;;;0.59;59.65;99026.06;5072063;28;9605;-77
2023/12/10 03:16:12;;;;;;;;;55.25;45.00;;;;;0.73;59.04;99026.25;5039284;28;8948;-77
2023/12/10 03:18:43;;;;;;;;;62.50;48.75;;;;;0.69;59.30;99026.19;5106260;28;8957;-78
2023/12/10 03:21:12;;;;;;;;;62.25;51.75;;;;;0.92;58.15;99022.13;5106227;28;9004;-77
2023/12/10 03:23:41;;;;;;;;;49.00;42.75;;;;;1.09;57.59;99018.81;5107485;28;8847;-76
2023/12/10 03:26:10;;;;;;;;;56.75;47.75;;;;;1.21;57.12;99025.00;5098014;27;8845;-77
2023/12/10 03:28:39;;;;;;;;;60.75;46.75;;;;;1.28;56.99;99018.16;5131652;27;8859;-76
2023/12/10 03:31:08;;;;;;;;;57.00;46.00;;;;;1.33;56.58;99013.00;5150182;27;8990;-77
2023/12/10 03:33:37;;;;;;;;;61.00;49.50;;;;;1.37;56.32;99006.97;5149845;27;8980;-76
2023/12/10 03:36:08;;;;;;;;;57.75;45.50;;;;;1.45;56.28;99002.75;5131260;27;8871;-77
2023/12/10 03:38:37;;;;;;;;;59.50;48.25;;;;;1.48;55.98;99002.75;5130795;27;8879;-76
2023/12/10 03:41:06;;;;;;;;;56.75;48.25;;;;;1.51;55.73;99004.50;5063339;27;8836;-78
2023/12/10 03:43:35;;;;;;;;;60.00;46.50;;;;;1.55;55.75;99001.94;5149721;27;8849;-77
2023/12/10 03:46:05;;;;;;;;;57.00;46.75;;;;;1.54;55.55;99002.81;5149433;27;8844;-77
2023/12/10 03:48:34;;;;;;;;;58.50;46.00;;;;;1.57;54.96;99005.41;5131414;27;8861;-77
2023/12/10 03:51:03;;;;;;;;;64.00;51.75;;;;;1.57;55.04;98997.63;5080499;27;8845;-77
2023/12/10 03:53:34;;;;;;;;;66.25;53.50;;;;;1.58;55.07;98989.03;5097577;27;9024;-78
2023/12/10 03:56:04;;;;;;;;;70.00;56.75;;;;;1.57;55.42;98989.88;5117658;27;8863;-78
2023/12/10 03:58:33;;;;;;;;;71.50;57.00;;;;;1.57;55.08;98989.88;5114821;27;8856;-77
2023/12/10 04:01:02;;;;;;;;;49.25;45.75;;;;;1.54;55.21;99000.22;5131635;27;8884;-77
2023/12/10 04:03:31;;;;;;;;;65.25;54.00;;;;;1.53;54.74;98995.03;5131085;27;8841;-77
2023/12/10 04:06:02;;;;;;;;;68.75;53.50;;;;;1.49;55.16;98994.13;5150169;27;8829;-78
2023/12/10 04:08:31;;;;;;;;;69.75;56.50;;;;;1.46;55.34;98998.44;5112858;27;8875;-78
2023/12/10 04:11:02;;;;;;;;;70.25;55.50;;;;;1.47;55.36;99002.75;5131170;27;8852;-77
2023/12/10 04:13:31;;;;;;;;;71.75;56.00;;;;;1.44;55.02;98994.09;5134025;27;8971;-77
2023/12/10 04:16:01;;;;;;;;;64.75;55.00;;;;;1.44;54.99;98982.88;5159087;27;8876;-78
2023/12/10 04:18:30;;;;;;;;;66.75;54.00;;;;;1.40;55.02;98989.75;5068832;27;8837;-78
2023/12/10 04:20:59;;;;;;;;;70.75;55.75;;;;;1.40;55.03;98978.53;5153318;27;8853;-79
2023/12/10 04:23:29;;;;;;;;;69.50;55.50;;;;;1.38;55.14;98981.09;5116775;27;8865;-77
2023/12/10 04:25:58;;;;;;;;;71.75;58.50;;;;;1.37;54.54;98973.31;5117410;27;8841;-78
2023/12/10 04:28:28;;;;;;;;;75.25;59.75;;;;;1.35;54.80;98981.09;5083110;27;8853;-78
2023/12/10 04:30:58;;;;;;;;;69.50;54.00;;;;;1.33;54.86;98987.09;5082414;27;8849;-77
2023/12/10 04:33:26;;;;;;;;;70.75;54.75;;;;;1.28;55.71;98987.09;5152910;27;8979;-79
2023/12/10 04:35:56;;;;;;;;;58.25;47.50;;;;;1.25;55.21;98980.13;5134293;27;8855;-79
2023/12/10 04:38:25;;;;;;;;;65.33;53.00;;;;;1.17;55.37;98986.13;5152517;27;8930;-78
2023/12/10 04:40:54;;;;;;;;;147.25;136.25;;;;;1.13;55.69;98987.81;5152425;27;8938;-77
2023/12/10 04:43:23;;;;;;;;;68.50;55.00;;;;;1.12;56.16;98992.97;5084791;27;11596;-77
2023/12/10 04:45:53;;;;;;;;;66.75;53.00;;;;;0.82;57.48;98997.88;5153862;27;8995;-78
2023/12/10 04:48:23;;;;;;;;;70.75;55.00;;;;;0.60;58.04;99007.13;5152584;27;8868;-77
2023/12/10 04:50:52;;;;;;;;;73.25;56.25;;;;;-0.02;59.88;99023.63;5152262;27;8849;-77
2023/12/10 04:53:21;;;;;;;;;67.25;53.75;;;;;-0.62;62.56;99030.47;5091216;28;8860;-76
2023/12/10 04:55:50;;;;;;;;;72.00;58.50;;;;;-0.74;63.09;99023.41;5091250;28;8920;-77
2023/12/10 04:58:21;;;;;;;;;68.25;54.50;;;;;-0.54;62.54;99031.50;5108620;28;8836;-77
2023/12/10 05:00:50;;;;;;;;;70.00;55.00;;;;;-0.46;61.92;99028.13;5091387;28;8914;-76
2023/12/10 05:03:21;;;;;;;;;55.25;47.25;;;;;-0.21;61.13;99025.09;5109508;28;8843;-77
2023/12/10 05:05:51;;;;;;;;;72.50;55.00;;;;;-0.20;60.99;99029.41;5091841;28;8938;-76
2023/12/10 05:08:19;;;;;;;;;65.25;53.75;;;;;-0.09;61.05;99036.44;5108544;28;8847;-77
2023/12/10 05:10:48;;;;;;;;;84.00;64.25;;;;;0.13;59.79;99042.78;5091811;28;8848;-78
2023/12/10 05:13:17;;;;;;;;;87.50;67.75;;;;;0.37;59.07;99037.91;5111872;28;8859;-76
2023/12/10 05:15:47;;;;;;;;;79.00;62.00;;;;;0.57;58.39;99040.72;5111678;28;8863;-76
2023/12/10 05:18:15;;;;;;;;;83.50;63.75;;;;;0.75;57.84;99046.97;5090964;28;9683;-76
2023/12/10 05:20:46;;;;;;;;;81.25;65.50;;;;;0.91;57.35;99045.38;5074139;28;8882;-78
2023/12/10 05:23:15;;;;;;;;;77.50;62.50;;;;;1.01;57.03;99044.66;5090845;28;8975;-77
2023/12/10 05:25:44;;;;;;;;;79.75;61.75;;;;;1.12;56.79;99037.84;5149850;27;8829;-78
2023/12/10 05:28:13;;;;;;;;;79.50;64.00;;;;;1.22;56.11;99044.00;5133160;27;8937;-76
2023/12/10 05:30:42;;;;;;;;;73.25;61.50;;;;;1.26;55.92;99043.16;5116130;27;8959;-77
2023/12/10 05:33:11;;;;;;;;;73.25;58.50;;;;;1.37;55.53;99038.06;5098555;27;8941;-78
2023/12/10 05:35:41;;;;;;;;;77.25;61.25;;;;;1.32;55.62;99026.81;5133071;27;8947;-78
2023/12/10 05:38:11;;;;;;;;;77.75;58.50;;;;;1.24;55.16;99040.56;5151467;27;8837;-78
2023/12/10 05:40:40;;;;;;;;;76.25;58.75;;;;;1.13;55.56;99025.78;5133252;27;8837;-76
2023/12/10 05:43:09;;;;;;;;;68.00;57.50;;;;;1.16;56.11;99018.94;5151306;27;9641;-78
2023/12/10 05:45:38;;;;;;;;;62.50;44.75;;;;;1.24;55.82;99016.41;5151735;27;8852;-77
2023/12/10 05:48:07;;;;;;;;;70.75;55.75;;;;;1.25;56.10;99020.72;5133640;27;8868;-78
2023/12/10 05:50:37;;;;;;;;;74.75;58.50;;;;;0.83;57.26;99027.19;5136814;27;9634;-78
2023/12/10 05:53:06;;;;;;;;;74.50;61.50;;;;;0.72;58.26;99028.81;5134885;27;8849;-76
2023/12/10 05:55:36;;;;;;;;;72.50;59.75;;;;;1.01;57.03;99027.41;5116245;27;8836;-77
2023/12/10 05:58:05;;;;;;;;;69.25;57.00;;;;;1.22;56.84;99015.53;5151637;27;8856;-76
2023/12/10 06:00:34;;;;;;;;;76.50;56.00;;;;;1.39;56.78;99019.09;5151050;27;8991;-76
2023/12/10 06:03:03;;;;;;;;;82.50;62.00;;;;;1.52;56.20;99021.78;5128849;27;8867;-76
2023/12/10 06:05:33;;;;;;;;;90.00;70.00;;;;;1.64;55.57;99019.28;5131261;27;8866;-77
2023/12/10 06:08:02;;;;;;;;;68.75;52.50;;;;;1.69;55.09;99015.00;5152217;27;8927;-78
2023/12/10 06:10:31;;;;;;;;;76.50;59.00;;;;;1.80;54.84;99009.88;5093617;27;9057;-77
2023/12/10 06:13:01;;;;;;;;;77.00;57.25;;;;;1.85;54.31;99010.78;5131935;27;8835;-77
2023/12/10 06:15:32;;;;;;;;;67.75;54.00;;;;;1.81;54.23;99006.44;5149706;27;8977;-78
2023/12/10 06:18:00;;;;;;;;;68.75;53.50;;;;;1.89;54.15;99003.88;5150383;27;8923;-77
2023/12/10 06:20:30;;;;;;;;;56.00;47.00;;;;;1.86;54.35;99006.44;5060222;27;8964;-78
2023/12/10 06:22:59;;;;;;;;;59.25;50.00;;;;;1.90;54.85;99006.50;5131553;27;8871;-77
2023/12/10 06:25:29;;;;;;;;;59.25;49.25;;;;;2.01;54.11;99002.22;5127967;27;8849;-77
2023/12/10 06:27:57;;;;;;;;;64.75;52.25;;;;;2.15;53.42;99009.22;5147689;27;9584;-77
2023/12/10 06:30:28;;;;;;;;;57.25;48.50;;;;;2.23;52.82;99003.16;5065706;28;8855;-76
2023/12/10 06:32:57;;;;;;;;;57.50;46.00;;;;;2.34;52.46;98998.03;5077338;28;8873;-79
2023/12/10 06:35:26;;;;;;;;;51.75;44.50;;;;;2.50;52.56;99013.66;5085478;28;8858;-78
2023/12/10 06:37:55;;;;;;;;;55.25;46.75;;;;;2.65;52.39;99015.41;5085585;28;8850;-77
2023/12/10 06:40:24;;;;;;;;;54.00;47.25;;;;;2.73;52.15;99017.19;5082977;28;9016;-77
2023/12/10 06:42:53;;;;;;;;;54.50;43.50;;;;;2.92;52.18;99022.38;5042661;28;8880;-79
2023/12/10 06:45:22;;;;;;;;;61.50;48.00;;;;;3.00;51.28;99012.91;5085498;28;8842;-76
2023/12/10 06:47:53;;;;;;;;;60.75;47.25;;;;;3.16;51.23;99009.44;5086007;28;8970;-78
2023/12/10 06:50:22;;;;;;;;;62.25;51.75;;;;;3.24;50.95;99006.88;5073097;28;8845;-76
2023/12/10 06:52:50;;;;;;;;;65.00;52.25;;;;;3.33;50.78;98999.03;5025542;28;8844;-77
2023/12/10 06:55:20;;;;;;;;;63.50;53.50;;;;;3.40;50.84;99003.38;5049058;28;8872;-78
2023/12/10 06:57:48;;;;;;;;;68.25;55.75;;;;;3.48;49.87;99002.53;5049368;28;8852;-78
2023/12/10 07:00:19;;;;;;;;;69.25;59.00;;;;;3.49;50.06;99009.50;5066113;28;8986;-78
2023/12/10 07:02:48;;;;;;;;;84.25;66.25;;;;;3.35;49.77;99014.63;5126976;27;8853;-77
2023/12/10 07:05:19;;;;;;;;;66.00;54.50;;;;;2.06;54.05;99022.13;5094297;27;8863;-76
2023/12/10 07:07:48;;;;;;;;;80.00;61.50;;;;;1.76;55.55;99027.13;5146544;27;8840;-77
2023/12/10 07:10:17;;;;;;;;;77.50;62.75;;;;;2.28;53.92;99026.56;5149531;27;8874;-78
2023/12/10 07:12:47;;;;;;;;;76.50;61.00;;;;;2.59;53.11;99029.25;5084997;28;8837;-77
2023/12/10 07:15:17;;;;;;;;;69.75;56.25;;;;;2.83;52.00;99028.44;5065563;28;8952;-77
2023/12/10 07:17:46;;;;;;;;;70.25;55.50;;;;;3.08;52.09;99029.34;5048958;28;8844;-77
2023/12/10 07:20:15;;;;;;;;;74.50;60.25;;;;;3.27;51.10;99022.44;5048865;28;8906;-77
2023/12/10 07:22:46;;;;;;;;;102.25;91.00;;;;;3.49;50.73;99025.94;4973309;28;8965;-76
2023/12/10 07:25:15;;;;;;;;;83.67;66.00;;;;;3.64;50.10;99034.56;4969597;28;9891;-77
2023/12/10 07:27:43;;;;;;;;;20.00;20.00;;;;;3.01;51.71;99038.00;4953509;28;9127;-77
2023/12/10 07:30:14;;;;;;;;;61.00;46.00;;;;;1.59;55.33;99050.31;4969925;28;8885;-77
2023/12/10 07:32:43;;;;;;;;;73.00;55.25;;;;;0.75;58.60;99059.91;4985727;28;8885;-77
2023/12/10 07:35:13;;;;;;;;;67.25;58.00;;;;;1.42;56.62;99057.09;4985303;28;8874;-77
2023/12/10 07:37:41;;;;;;;;;73.00;57.75;;;;;1.90;55.43;99055.72;4966509;28;9019;-78
2023/12/10 07:40:13;;;;;;;;;71.75;58.50;;;;;2.29;53.81;99046.41;4966998;28;8852;-77
2023/12/10 07:42:42;;;;;;;;;70.75;56.75;;;;;2.57;53.35;99043.94;4967390;28;8884;-77
2023/12/10 07:45:12;;;;;;;;;117.25;103.75;;;;;2.73;52.91;99048.34;4966823;28;8899;-77
2023/12/10 07:47:40;;;;;;;;;92.67;73.67;;;;;3.01;51.63;99043.19;4966081;28;10695;-77
2023/12/10 07:50:10;;;;;;;;;79.25;63.75;;;;;3.21;51.35;99045.81;4983287;28;9522;-76
2023/12/10 07:52:39;;;;;;;;;79.75;63.75;;;;;3.38;50.73;99046.69;5012496;28;9049;-76
2023/12/10 07:55:08;;;;;;;;;79.75;62.00;;;;;3.47;50.42;99043.25;5048738;28;8908;-76
2023/12/10 07:57:39;;;;;;;;;75.25;61.75;;;;;3.62;50.73;99045.00;5048511;28;8874;-77
2023/12/10 08:00:10;;;;;;;;;78.75;61.75;;;;;3.76;49.41;99040.63;5045978;28;8842;-76
2023/12/10 08:02:42;;;;;;;;;82.00;64.00;;;;;3.89;49.88;99036.28;5075948;27;8850;-79
2023/12/10 08:05:11;;;;;;;;;88.00;68.25;;;;;3.92;49.38;99041.47;5063452;27;8850;-78
2023/12/10 08:07:40;;;;;;;;;78.50;62.50;;;;;4.02;48.93;99042.31;5132107;27;8925;-79
2023/12/10 08:10:10;;;;;;;;;83.25;66.25;;;;;4.15;48.74;99043.16;5112346;27;8854;-78
2023/12/10 08:12:40;;;;;;;;;76.00;60.75;;;;;4.24;48.94;99042.25;5100310;28;8879;-78
2023/12/10 08:15:11;;;;;;;;;85.75;65.25;;;;;4.27;48.79;99053.50;5055921;28;8848;-77
2023/12/10 08:17:43;;;;;;;;;79.25;61.75;;;;;4.38;48.78;99044.81;5101948;27;8849;-78
2023/12/10 08:20:18;;;;;;;;;82.75;65.25;;;;;4.48;48.61;99046.50;5110921;27;8865;-76
2023/12/10 08:22:47;;;;;;;;;80.00;62.75;;;;;4.56;48.63;99044.72;5130349;27;8846;-77
2023/12/10 08:25:17;;;;;;;;;82.00;64.25;;;;;4.64;48.28;99042.97;5142129;27;8948;-76
2023/12/10 08:27:47;;;;;;;;;77.75;61.50;;;;;4.71;48.59;99030.75;5098566;27;8837;-75
2023/12/10 08:30:17;;;;;;;;;83.00;65.33;;;;;4.79;48.16;99046.34;5152570;27;8841;-78
2023/12/10 08:32:46;;;;;;;;;88.00;67.67;;;;;4.83;48.09;99048.94;5064970;27;8857;-76
2023/12/10 08:35:15;;;;;;;;;95.00;81.33;;;;;4.86;47.96;99050.66;5150139;27;9056;-79
2023/12/10 08:37:44;;;;;;;;;88.00;68.67;;;;;4.88;47.80;99052.34;5141280;27;9540;-78
2023/12/10 08:40:14;;;;;;;;;98.50;80.25;;;;;4.91;47.65;99048.91;5151757;27;9394;-77
2023/12/10 08:42:43;;;;;;;;;86.33;68.67;;;;;4.93;47.38;99060.16;5134086;27;9677;-78
2023/12/10 08:45:14;;;;;;;;;96.25;83.50;;;;;4.91;48.27;99060.16;5116904;27;9205;-78
2023/12/10 08:47:43;;;;;;;;;73.00;59.00;;;;;4.97;48.43;99066.22;5151935;27;9775;-77
2023/12/10 08:50:13;;;;;;;;;96.00;78.33;;;;;4.98;48.90;99067.94;5116471;27;9388;-78
2023/12/10 08:52:41;;;;;;;;;74.00;57.00;;;;;3.81;50.39;99073.53;5133564;27;9976;-78
2023/12/10 08:55:11;;;;;;;;;91.00;71.67;;;;;3.87;51.28;99079.63;5132803;27;9624;-78
2023/12/10 08:57:40;;;;;;;;;90.00;73.33;;;;;3.56;51.77;99087.44;5077736;27;9517;-81
2023/12/10 09:00:10;;;;;;;;;95.67;76.00;;;;;3.55;52.61;99095.22;5117676;27;9002;-80
2023/12/10 09:02:40;;;;;;;;;91.67;72.67;;;;;3.48;52.44;99096.94;5112171;27;9470;-78
2023/12/10 09:05:09;;;;;;;;;90.67;72.00;;;;;3.52;52.48;99098.69;5112112;27;9249;-76
2023/12/10 09:07:38;;;;;;;;;88.33;68.00;;;;;3.82;51.94;99094.34;5082840;27;9268;-79
2023/12/10 09:10:08;;;;;;;;;92.33;73.67;;;;;4.02;51.88;99098.66;5144642;27;9083;-77
2023/12/10 09:12:41;;;;;;;;;93.75;79.25;;;;;4.22;52.08;99098.63;5124861;27;9265;-79
2023/12/10 09:15:10;;;;;;;;;75.00;60.00;;;;;4.39;52.88;99090.78;5101271;27;10530;-79
2023/12/10 09:17:41;;;;;;;;;89.33;72.00;;;;;4.49;52.58;99093.34;5140880;27;9386;-78
2023/12/10 09:20:10;;;;;;;;;86.33;67.33;;;;;4.58;52.75;99095.03;5111910;27;9333;-80
2023/12/10 09:22:41;;;;;;;;;84.00;66.25;;;;;4.69;52.20;99092.41;5153710;27;9198;-79
2023/12/10 09:25:10;;;;;;;;;88.67;69.67;;;;;4.85;52.29;99095.78;5100942;27;8876;-69
2023/12/10 09:27:39;;;;;;;;;84.00;64.00;;;;;4.97;52.59;99092.28;5133351;27;9343;-77
2023/12/10 09:30:09;;;;;;;;;82.33;67.67;;;;;5.07;52.54;99097.41;5151126;27;8999;-77
2023/12/10 09:32:42;;;;;;;;;81.50;63.25;;;;;5.20;52.44;99089.53;5151276;27;9148;-73
2023/12/10 09:35:11;;;;;;;;;84.67;65.00;;;;;5.21;52.32;99099.06;5150977;27;8854;-75
2023/12/10 09:37:40;;;;;;;;;82.00;66.33;;;;;5.25;52.36;99079.94;5150320;27;9080;-75
2023/12/10 09:40:10;;;;;;;;;88.50;70.50;;;;;5.28;52.85;99092.94;5150402;27;9085;-76
2023/12/10 09:42:39;;;;;;;;;88.33;71.00;;;;;5.31;52.90;99088.59;5150997;27;10055;-76
2023/12/10 09:45:08;;;;;;;;;84.67;67.00;;;;;5.34;52.73;99088.59;5151152;27;10428;-77
2023/12/10 09:47:40;;;;;;;;;106.50;96.25;;;;;5.44;53.50;99092.00;5097902;27;9999;-75
2023/12/10 09:50:11;;;;;;;;;101.25;97.50;;;;;5.50;53.18;99084.13;5113874;27;10443;-78
2023/12/10 09:52:40;;;;;;;;;97.50;77.75;;;;;5.55;52.75;99089.31;5129768;27;11237;-74
2023/12/10 09:55:10;;;;;;;;;95.50;84.75;;;;;5.65;52.75;99093.56;5139811;27;9771;-75
2023/12/10 09:57:39;;;;;;;;;96.00;83.75;;;;;5.72;52.55;99087.44;5150555;27;9962;-76
2023/12/10 10:00:10;;;;;;;;;96.00;83.75;;;;;5.78;52.89;99083.03;5132148;27;9896;-75
2023/12/10 10:02:40;;;;;;;;;114.50;106.50;;;;;5.83;52.85;99083.84;5131280;27;10191;-75
2023/12/10 10:05:10;;;;;;;;;105.50;98.25;;;;;5.91;52.71;99079.44;5131514;27;10661;-75
2023/12/10 10:07:39;;;;;;;;;95.00;82.25;;;;;5.87;52.49;99077.75;5150632;27;10982;-75
2023/12/10 10:10:11;;;;;;;;;104.00;93.50;;;;;5.94;52.38;99071.56;5131870;27;10196;-75
2023/12/10 10:12:40;;;;;;;;;98.25;87.75;;;;;5.96;53.01;99071.56;5096690;27;10103;-75
2023/12/10 10:15:11;;;;;;;;;112.75;102.50;;;;;5.95;52.05;99070.69;5150570;27;9942;-78
2023/12/10 10:17:40;;;;;;;;;125.00;110.00;;;;;5.96;52.85;99067.19;5150010;27;10952;-74
2023/12/10 10:20:11;;;;;;;;;119.50;106.50;;;;;5.95;52.59;99065.47;5150606;27;11172;-75
2023/12/10 10:22:39;;;;;;;;;115.00;98.50;;;;;5.88;52.81;99059.44;5150734;27;11083;-76
2023/12/10 10:25:09;;;;;;;;;99.50;92.25;;;;;5.93;53.42;99062.03;5113426;27;10518;-74
2023/12/10 10:27:38;;;;;;;;;105.00;90.50;;;;;5.96;53.79;99058.50;5149505;27;10377;-77
2023/12/10 10:30:08;;;;;;;;;99.50;85.25;;;;;6.01;54.26;99054.97;5149661;27;10505;-75
2023/12/10 10:32:38;;;;;;;;;98.50;88.75;;;;;6.04;54.38;99054.06;5093582;27;10337;-77
2023/12/10 10:35:08;;;;;;;;;96.75;88.50;;;;;6.11;54.55;99056.63;5130790;27;10113;-75
2023/12/10 10:37:39;;;;;;;;;102.25;92.00;;;;;6.18;54.85;99053.94;5149517;27;10247;-74
2023/12/10 10:40:08;;;;;;;;;106.00;102.00;;;;;6.18;54.97;99052.19;5135126;27;10409;-73
2023/12/10 10:42:37;;;;;;;;;111.25;102.25;;;;;6.21;54.62;99053.88;5103772;28;10740;-75
2023/12/10 10:45:08;;;;;;;;;109.75;99.75;;;;;6.25;55.27;99050.38;5092799;28;11152;-75
2023/12/10 10:47:38;;;;;;;;;102.00;94.25;;;;;6.34;55.23;99052.88;5056416;28;11074;-72
2023/12/10 10:50:09;;;;;;;;;106.75;100.25;;;;;6.35;55.62;99057.22;5105241;28;11621;-75
2023/12/10 10:52:54;;;;;;;;;116.25;107.00;;;;;6.37;55.62;99052.84;5054934;28;11148;-78
2023/12/10 10:55:24;;;;;;;;;127.25;115.50;;;;;6.39;55.47;99053.69;5052272;28;11280;-75
2023/12/10 10:57:54;;;;;;;;;122.75;110.25;;;;;6.47;56.32;99057.09;5086757;28;12695;-73
2023/12/10 11:00:36;;;;;;;;;118.75;106.00;;;;;6.65;56.37;99058.59;5091597;28;11603;-75
2023/12/10 11:03:08;;;;;;;;;128.50;113.00;;;;;6.57;55.79;99050.00;5088405;28;11126;-73
2023/12/10 11:05:39;;;;;;;;;166.00;141.50;;;;;6.56;57.00;99058.72;5105619;28;11626;-76
2023/12/10 11:08:12;;;;;;;;;153.50;140.75;;;;;6.61;57.01;99054.28;5105310;28;11630;-73
2023/12/10 11:10:45;;;;;;;;;144.25;133.25;;;;;6.66;57.45;99054.22;5105223;28;11586;-74
2023/12/10 11:13:15;;;;;;;;;148.75;132.25;;;;;6.10;57.64;99060.09;5088402;28;11610;-74
2023/12/10 11:15:44;;;;;;;;;140.00;128.25;;;;;5.54;60.28;99066.72;5105796;28;11635;-75
2023/12/10 11:18:13;;;;;;;;;154.50;140.75;;;;;5.66;59.81;99076.16;5105387;28;11590;-73
2023/12/10 11:20:46;;;;;;;;;154.00;142.25;;;;;5.82;59.70;99076.91;5082024;27;12431;-77
2023/12/10 11:23:19;;;;;;;;;153.50;133.00;;;;;4.76;62.89;99081.94;5149785;27;11623;-73
2023/12/10 11:25:51;;;;;;;;;135.50;122.75;;;;;4.71;63.62;99075.88;5153474;27;12353;-72
2023/12/10 11:28:23;;;;;;;;;149.00;128.75;;;;;4.98;63.12;99079.25;5153100;27;11599;-74
2023/12/10 11:30:52;;;;;;;;;157.75;146.50;;;;;5.23;62.26;99085.16;5153756;27;11629;-75
2023/12/10 11:33:21;;;;;;;;;188.75;169.50;;;;;5.44;61.48;99072.88;5153305;27;11642;-74
2023/12/10 11:35:50;;;;;;;;;217.00;193.33;;;;;5.59;61.28;99079.72;5153182;27;11611;-74
2023/12/10 11:38:46;;;;;;;;;218.67;204.00;;;;;5.85;61.20;99080.38;5153592;27;8869;-74
2023/12/10 11:41:16;;;;;;;;;221.00;203.00;;;;;5.87;60.64;99089.03;5101029;27;8872;-77